sensor_id;sensor_type;location;lat;lon;timestamp;P1;durP1;ratioP1;P2;durP2;ratioP2
3095;SDS011;1558;42.700;23.360;2023-05-08T00:02:22;3.87;;;3.47;;
3095;SDS011;1558;42.700;23.360;2023-05-08T00:04:51;4.77;;;3.83;;
3095;SDS011;1558;42.700;23.360;2023-05-08T00:07:19;5.90;;;3.87;;
3095;SDS011;1558;42.700;23.360;2023-05-08T00:09:47;5.03;;;3.80;;
3095;SDS011;1558;42.700;23.360;2023-05-08T00:12:15;6.80;;;4.00;;
3095;SDS011;1558;42.700;23.360;2023-05-08T00:14:43;4.30;;;3.70;;
3095;SDS011;1558;42.700;23.360;2023-05-08T00:17:11;4.70;;;4.20;;
3095;SDS011;1558;42.700;23.360;2023-05-08T00:19:39;4.33;;;4.00;;
3095;SDS011;1558;42.700;23.360;2023-05-08T00:22:08;4.30;;;3.90;;
3095;SDS011;1558;42.700;23.360;2023-05-08T00:24:36;4.67;;;3.60;;
3095;SDS011;1558;42.700;23.360;2023-05-08T00:27:04;4.67;;;4.20;;
3095;SDS011;1558;42.700;23.360;2023-05-08T00:29:33;4.00;;;3.60;;
3095;SDS011;1558;42.700;23.360;2023-05-08T00:32:01;5.60;;;4.00;;
3095;SDS011;1558;42.700;23.360;2023-05-08T00:34:29;4.87;;;4.37;;
3095;SDS011;1558;42.700;23.360;2023-05-08T00:36:57;3.93;;;3.53;;
3095;SDS011;1558;42.700;23.360;2023-05-08T00:39:27;5.43;;;3.93;;
3095;SDS011;1558;42.700;23.360;2023-05-08T00:41:55;4.33;;;3.70;;
3095;SDS011;1558;42.700;23.360;2023-05-08T00:44:23;4.10;;;3.70;;
3095;SDS011;1558;42.700;23.360;2023-05-08T00:46:51;4.33;;;3.90;;
3095;SDS011;1558;42.700;23.360;2023-05-08T00:49:19;4.63;;;3.80;;
3095;SDS011;1558;42.700;23.360;2023-05-08T00:51:48;4.60;;;3.63;;
3095;SDS011;1558;42.700;23.360;2023-05-08T00:54:19;4.43;;;3.70;;
3095;SDS011;1558;42.700;23.360;2023-05-08T00:56:49;4.20;;;3.50;;
3095;SDS011;1558;42.700;23.360;2023-05-08T00:59:19;4.13;;;3.77;;
3095;SDS011;1558;42.700;23.360;2023-05-08T01:01:48;4.93;;;3.77;;
3095;SDS011;1558;42.700;23.360;2023-05-08T01:04:18;4.30;;;3.90;;
3095;SDS011;1558;42.700;23.360;2023-05-08T01:06:47;4.77;;;4.00;;
3095;SDS011;1558;42.700;23.360;2023-05-08T01:09:15;5.10;;;4.10;;
3095;SDS011;1558;42.700;23.360;2023-05-08T01:11:45;4.93;;;4.53;;
3095;SDS011;1558;42.700;23.360;2023-05-08T01:14:24;5.17;;;4.30;;
3095;SDS011;1558;42.700;23.360;2023-05-08T01:17:01;6.17;;;5.00;;
3095;SDS011;1558;42.700;23.360;2023-05-08T01:19:53;4.50;;;4.10;;
3095;SDS011;1558;42.700;23.360;2023-05-08T01:22:34;5.10;;;4.70;;
3095;SDS011;1558;42.700;23.360;2023-05-08T01:25:28;8.53;;;4.60;;
3095;SDS011;1558;42.700;23.360;2023-05-08T01:28:20;5.70;;;4.30;;
3095;SDS011;1558;42.700;23.360;2023-05-08T01:31:16;4.27;;;3.87;;
3095;SDS011;1558;42.700;23.360;2023-05-08T01:33:55;5.60;;;4.40;;
3095;SDS011;1558;42.700;23.360;2023-05-08T01:36:32;4.53;;;4.13;;
3095;SDS011;1558;42.700;23.360;2023-05-08T01:39:09;4.90;;;4.10;;
3095;SDS011;1558;42.700;23.360;2023-05-08T01:41:45;4.57;;;4.00;;
3095;SDS011;1558;42.700;23.360;2023-05-08T01:44:20;7.17;;;4.30;;
3095;SDS011;1558;42.700;23.360;2023-05-08T01:46:54;5.10;;;4.27;;
3095;SDS011;1558;42.700;23.360;2023-05-08T01:49:25;4.70;;;4.20;;
3095;SDS011;1558;42.700;23.360;2023-05-08T01:51:58;4.70;;;4.30;;
3095;SDS011;1558;42.700;23.360;2023-05-08T01:54:32;6.73;;;4.30;;
3095;SDS011;1558;42.700;23.360;2023-05-08T01:57:06;4.27;;;3.97;;
3095;SDS011;1558;42.700;23.360;2023-05-08T01:59:36;4.57;;;4.17;;
3095;SDS011;1558;42.700;23.360;2023-05-08T02:02:05;5.77;;;4.30;;
3095;SDS011;1558;42.700;23.360;2023-05-08T02:04:37;5.07;;;4.67;;
3095;SDS011;1558;42.700;23.360;2023-05-08T02:07:07;5.30;;;4.33;;
3095;SDS011;1558;42.700;23.360;2023-05-08T02:09:36;5.27;;;4.60;;
3095;SDS011;1558;42.700;23.360;2023-05-08T02:12:06;6.27;;;4.63;;
3095;SDS011;1558;42.700;23.360;2023-05-08T02:14:37;8.50;;;5.00;;
3095;SDS011;1558;42.700;23.360;2023-05-08T02:17:08;5.87;;;4.70;;
3095;SDS011;1558;42.700;23.360;2023-05-08T02:19:39;4.90;;;4.40;;
3095;SDS011;1558;42.700;23.360;2023-05-08T02:22:09;5.43;;;4.80;;
3095;SDS011;1558;42.700;23.360;2023-05-08T02:24:38;4.97;;;4.53;;
3095;SDS011;1558;42.700;23.360;2023-05-08T02:27:08;5.37;;;4.50;;
3095;SDS011;1558;42.700;23.360;2023-05-08T02:29:38;9.57;;;5.33;;
3095;SDS011;1558;42.700;23.360;2023-05-08T02:32:07;7.83;;;5.13;;
3095;SDS011;1558;42.700;23.360;2023-05-08T02:34:36;8.27;;;5.83;;
3095;SDS011;1558;42.700;23.360;2023-05-08T02:37:18;6.37;;;5.77;;
3095;SDS011;1558;42.700;23.360;2023-05-08T02:39:48;7.00;;;5.90;;
3095;SDS011;1558;42.700;23.360;2023-05-08T02:42:19;6.67;;;6.00;;
3095;SDS011;1558;42.700;23.360;2023-05-08T02:44:47;9.90;;;6.50;;
3095;SDS011;1558;42.700;23.360;2023-05-08T02:47:16;6.33;;;5.57;;
3095;SDS011;1558;42.700;23.360;2023-05-08T02:49:48;7.80;;;6.80;;
3095;SDS011;1558;42.700;23.360;2023-05-08T02:52:24;7.47;;;6.30;;
3095;SDS011;1558;42.700;23.360;2023-05-08T02:54:57;7.93;;;6.97;;
3095;SDS011;1558;42.700;23.360;2023-05-08T02:57:30;8.23;;;6.40;;
3095;SDS011;1558;42.700;23.360;2023-05-08T03:00:04;7.07;;;6.37;;
3095;SDS011;1558;42.700;23.360;2023-05-08T03:02:39;6.67;;;6.07;;
3095;SDS011;1558;42.700;23.360;2023-05-08T03:05:12;7.40;;;6.50;;
3095;SDS011;1558;42.700;23.360;2023-05-08T03:07:46;7.90;;;7.10;;
3095;SDS011;1558;42.700;23.360;2023-05-08T03:10:16;7.83;;;6.57;;
3095;SDS011;1558;42.700;23.360;2023-05-08T03:12:49;6.93;;;6.17;;
3095;SDS011;1558;42.700;23.360;2023-05-08T03:15:20;10.93;;;6.37;;
3095;SDS011;1558;42.700;23.360;2023-05-08T03:17:53;7.53;;;6.73;;
3095;SDS011;1558;42.700;23.360;2023-05-08T03:20:24;7.53;;;6.77;;
3095;SDS011;1558;42.700;23.360;2023-05-08T03:22:55;8.80;;;7.27;;
3095;SDS011;1558;42.700;23.360;2023-05-08T03:25:23;10.83;;;7.97;;
3095;SDS011;1558;42.700;23.360;2023-05-08T03:27:53;8.63;;;7.20;;
3095;SDS011;1558;42.700;23.360;2023-05-08T03:30:23;8.33;;;7.43;;
3095;SDS011;1558;42.700;23.360;2023-05-08T03:32:53;14.20;;;7.73;;
3095;SDS011;1558;42.700;23.360;2023-05-08T03:35:24;9.20;;;6.83;;
3095;SDS011;1558;42.700;23.360;2023-05-08T03:37:56;9.33;;;8.27;;
3095;SDS011;1558;42.700;23.360;2023-05-08T03:40:26;8.80;;;7.60;;
3095;SDS011;1558;42.700;23.360;2023-05-08T03:42:54;8.57;;;7.23;;
3095;SDS011;1558;42.700;23.360;2023-05-08T03:45:23;9.97;;;7.50;;
3095;SDS011;1558;42.700;23.360;2023-05-08T03:47:52;13.43;;;8.00;;
3095;SDS011;1558;42.700;23.360;2023-05-08T03:50:20;13.03;;;8.47;;
3095;SDS011;1558;42.700;23.360;2023-05-08T03:52:49;13.60;;;8.13;;
3095;SDS011;1558;42.700;23.360;2023-05-08T03:55:18;9.60;;;8.40;;
3095;SDS011;1558;42.700;23.360;2023-05-08T03:57:48;14.37;;;8.57;;
3095;SDS011;1558;42.700;23.360;2023-05-08T04:00:26;12.97;;;8.60;;
3095;SDS011;1558;42.700;23.360;2023-05-08T04:03:02;11.27;;;8.20;;
3095;SDS011;1558;42.700;23.360;2023-05-08T04:05:42;13.07;;;8.17;;
3095;SDS011;1558;42.700;23.360;2023-05-08T04:08:18;11.80;;;9.53;;
3095;SDS011;1558;42.700;23.360;2023-05-08T04:10:54;11.77;;;9.40;;
3095;SDS011;1558;42.700;23.360;2023-05-08T04:13:31;10.00;;;8.80;;
3095;SDS011;1558;42.700;23.360;2023-05-08T04:16:05;11.30;;;8.57;;
3095;SDS011;1558;42.700;23.360;2023-05-08T04:18:36;11.23;;;8.70;;
3095;SDS011;1558;42.700;23.360;2023-05-08T04:21:10;11.37;;;8.27;;
3095;SDS011;1558;42.700;23.360;2023-05-08T04:23:45;13.00;;;9.00;;
3095;SDS011;1558;42.700;23.360;2023-05-08T04:26:17;11.57;;;8.60;;
3095;SDS011;1558;42.700;23.360;2023-05-08T04:28:46;13.50;;;9.60;;
3095;SDS011;1558;42.700;23.360;2023-05-08T04:31:14;11.80;;;9.20;;
3095;SDS011;1558;42.700;23.360;2023-05-08T04:33:43;15.03;;;9.30;;
3095;SDS011;1558;42.700;23.360;2023-05-08T04:36:12;12.27;;;9.47;;
3095;SDS011;1558;42.700;23.360;2023-05-08T04:38:40;16.77;;;10.10;;
3095;SDS011;1558;42.700;23.360;2023-05-08T04:41:08;11.10;;;9.70;;
3095;SDS011;1558;42.700;23.360;2023-05-08T04:43:38;10.60;;;8.87;;
3095;SDS011;1558;42.700;23.360;2023-05-08T04:46:06;14.10;;;9.73;;
3095;SDS011;1558;42.700;23.360;2023-05-08T04:48:35;18.37;;;10.80;;
3095;SDS011;1558;42.700;23.360;2023-05-08T04:51:03;16.77;;;9.80;;
3095;SDS011;1558;42.700;23.360;2023-05-08T04:53:31;12.90;;;9.13;;
3095;SDS011;1558;42.700;23.360;2023-05-08T04:55:59;9.73;;;8.60;;
3095;SDS011;1558;42.700;23.360;2023-05-08T04:58:27;10.57;;;9.40;;
3095;SDS011;1558;42.700;23.360;2023-05-08T05:00:57;11.77;;;8.83;;
3095;SDS011;1558;42.700;23.360;2023-05-08T05:03:28;11.07;;;8.57;;
3095;SDS011;1558;42.700;23.360;2023-05-08T05:05:58;8.27;;;7.47;;
3095;SDS011;1558;42.700;23.360;2023-05-08T05:08:26;13.17;;;8.30;;
3095;SDS011;1558;42.700;23.360;2023-05-08T05:10:54;17.90;;;10.03;;
3095;SDS011;1558;42.700;23.360;2023-05-08T05:13:22;11.40;;;8.60;;
3095;SDS011;1558;42.700;23.360;2023-05-08T05:15:50;15.30;;;9.03;;
3095;SDS011;1558;42.700;23.360;2023-05-08T05:18:21;13.57;;;9.40;;
3095;SDS011;1558;42.700;23.360;2023-05-08T05:20:49;9.60;;;8.60;;
3095;SDS011;1558;42.700;23.360;2023-05-08T05:23:17;15.87;;;9.77;;
3095;SDS011;1558;42.700;23.360;2023-05-08T05:25:45;13.73;;;9.82;;
3095;SDS011;1558;42.700;23.360;2023-05-08T05:28:13;17.67;;;10.73;;
3095;SDS011;1558;42.700;23.360;2023-05-08T05:30:41;12.57;;;8.25;;
3095;SDS011;1558;42.700;23.360;2023-05-08T05:33:09;13.00;;;8.57;;
3095;SDS011;1558;42.700;23.360;2023-05-08T05:35:38;12.90;;;9.23;;
3095;SDS011;1558;42.700;23.360;2023-05-08T05:38:07;12.70;;;8.95;;
3095;SDS011;1558;42.700;23.360;2023-05-08T05:40:35;16.60;;;9.20;;
3095;SDS011;1558;42.700;23.360;2023-05-08T05:43:03;12.25;;;9.27;;
3095;SDS011;1558;42.700;23.360;2023-05-08T05:45:31;13.95;;;9.40;;
3095;SDS011;1558;42.700;23.360;2023-05-08T05:47:59;11.43;;;9.00;;
3095;SDS011;1558;42.700;23.360;2023-05-08T05:50:27;13.70;;;8.90;;
3095;SDS011;1558;42.700;23.360;2023-05-08T05:52:57;11.18;;;8.60;;
3095;SDS011;1558;42.700;23.360;2023-05-08T05:55:25;16.63;;;8.50;;
3095;SDS011;1558;42.700;23.360;2023-05-08T05:57:53;11.88;;;8.50;;
3095;SDS011;1558;42.700;23.360;2023-05-08T06:00:21;16.77;;;8.43;;
3095;SDS011;1558;42.700;23.360;2023-05-08T06:02:49;13.07;;;8.60;;
3095;SDS011;1558;42.700;23.360;2023-05-08T06:05:20;13.93;;;8.68;;
3095;SDS011;1558;42.700;23.360;2023-05-08T06:07:49;11.68;;;8.45;;
3095;SDS011;1558;42.700;23.360;2023-05-08T06:10:19;15.55;;;10.20;;
3095;SDS011;1558;42.700;23.360;2023-05-08T06:12:47;11.10;;;8.63;;
3095;SDS011;1558;42.700;23.360;2023-05-08T06:15:15;12.52;;;9.38;;
3095;SDS011;1558;42.700;23.360;2023-05-08T06:17:51;10.77;;;8.73;;
3095;SDS011;1558;42.700;23.360;2023-05-08T06:20:19;12.00;;;8.57;;
3095;SDS011;1558;42.700;23.360;2023-05-08T06:22:51;12.25;;;8.45;;
3095;SDS011;1558;42.700;23.360;2023-05-08T06:25:21;10.23;;;8.60;;
3095;SDS011;1558;42.700;23.360;2023-05-08T06:27:52;11.43;;;8.27;;
3095;SDS011;1558;42.700;23.360;2023-05-08T06:30:21;14.95;;;9.50;;
3095;SDS011;1558;42.700;23.360;2023-05-08T06:32:49;11.43;;;8.10;;
3095;SDS011;1558;42.700;23.360;2023-05-08T06:35:19;11.30;;;8.20;;
3095;SDS011;1558;42.700;23.360;2023-05-08T06:37:47;9.18;;;8.18;;
3095;SDS011;1558;42.700;23.360;2023-05-08T06:40:17;9.93;;;8.50;;
3095;SDS011;1558;42.700;23.360;2023-05-08T06:42:46;9.57;;;8.27;;
3095;SDS011;1558;42.700;23.360;2023-05-08T06:45:14;12.55;;;9.75;;
3095;SDS011;1558;42.700;23.360;2023-05-08T06:47:42;8.75;;;7.85;;
3095;SDS011;1558;42.700;23.360;2023-05-08T06:50:11;9.80;;;7.82;;
3095;SDS011;1558;42.700;23.360;2023-05-08T06:52:39;13.18;;;8.23;;
3095;SDS011;1558;42.700;23.360;2023-05-08T06:55:09;12.23;;;8.43;;
3095;SDS011;1558;42.700;23.360;2023-05-08T06:57:37;12.65;;;9.63;;
3095;SDS011;1558;42.700;23.360;2023-05-08T07:00:08;9.13;;;8.20;;
3095;SDS011;1558;42.700;23.360;2023-05-08T07:02:37;13.52;;;10.13;;
3095;SDS011;1558;42.700;23.360;2023-05-08T07:05:05;9.40;;;8.48;;
3095;SDS011;1558;42.700;23.360;2023-05-08T07:07:34;14.52;;;9.70;;
3095;SDS011;1558;42.700;23.360;2023-05-08T07:10:02;8.52;;;7.63;;
3095;SDS011;1558;42.700;23.360;2023-05-08T07:12:33;19.73;;;9.65;;
3095;SDS011;1558;42.700;23.360;2023-05-08T07:15:01;10.27;;;8.65;;
3095;SDS011;1558;42.700;23.360;2023-05-08T07:17:51;10.63;;;8.55;;
3095;SDS011;1558;42.700;23.360;2023-05-08T07:20:19;11.73;;;7.65;;
3095;SDS011;1558;42.700;23.360;2023-05-08T07:22:47;9.23;;;8.18;;
3095;SDS011;1558;42.700;23.360;2023-05-08T07:25:15;13.18;;;8.25;;
3095;SDS011;1558;42.700;23.360;2023-05-08T07:27:43;20.52;;;11.68;;
3095;SDS011;1558;42.700;23.360;2023-05-08T07:30:11;14.30;;;8.93;;
3095;SDS011;1558;42.700;23.360;2023-05-08T07:32:40;11.68;;;8.60;;
3095;SDS011;1558;42.700;23.360;2023-05-08T07:35:09;10.82;;;8.20;;
3095;SDS011;1558;42.700;23.360;2023-05-08T07:37:38;11.38;;;8.02;;
3095;SDS011;1558;42.700;23.360;2023-05-08T07:40:07;11.25;;;7.47;;
3095;SDS011;1558;42.700;23.360;2023-05-08T07:42:39;10.25;;;9.20;;
3095;SDS011;1558;42.700;23.360;2023-05-08T07:45:08;10.10;;;7.35;;
3095;SDS011;1558;42.700;23.360;2023-05-08T07:47:37;13.32;;;7.80;;
3095;SDS011;1558;42.700;23.360;2023-05-08T07:50:06;9.05;;;8.15;;
3095;SDS011;1558;42.700;23.360;2023-05-08T07:52:35;7.93;;;7.13;;
3095;SDS011;1558;42.700;23.360;2023-05-08T07:55:04;9.35;;;7.80;;
3095;SDS011;1558;42.700;23.360;2023-05-08T07:57:35;11.68;;;8.95;;
3095;SDS011;1558;42.700;23.360;2023-05-08T08:00:04;19.17;;;9.20;;
3095;SDS011;1558;42.700;23.360;2023-05-08T08:02:33;9.77;;;7.70;;
3095;SDS011;1558;42.700;23.360;2023-05-08T08:05:03;10.90;;;7.75;;
3095;SDS011;1558;42.700;23.360;2023-05-08T08:07:31;13.35;;;8.52;;
3095;SDS011;1558;42.700;23.360;2023-05-08T08:10:00;11.52;;;8.25;;
3095;SDS011;1558;42.700;23.360;2023-05-08T08:12:30;8.20;;;7.50;;
3095;SDS011;1558;42.700;23.360;2023-05-08T08:14:58;12.15;;;9.18;;
3095;SDS011;1558;42.700;23.360;2023-05-08T08:17:26;8.50;;;7.60;;
3095;SDS011;1558;42.700;23.360;2023-05-08T08:19:54;10.07;;;7.65;;
3095;SDS011;1558;42.700;23.360;2023-05-08T08:22:23;12.23;;;6.70;;
3095;SDS011;1558;42.700;23.360;2023-05-08T08:24:51;7.45;;;6.43;;
3095;SDS011;1558;42.700;23.360;2023-05-08T08:27:22;7.50;;;6.75;;
3095;SDS011;1558;42.700;23.360;2023-05-08T08:29:51;7.53;;;6.22;;
3095;SDS011;1558;42.700;23.360;2023-05-08T08:32:37;9.45;;;6.55;;
3095;SDS011;1558;42.700;23.360;2023-05-08T08:35:07;10.48;;;6.57;;
3095;SDS011;1558;42.700;23.360;2023-05-08T08:37:36;7.28;;;6.07;;
3095;SDS011;1558;42.700;23.360;2023-05-08T08:40:05;10.38;;;6.63;;
3095;SDS011;1558;42.700;23.360;2023-05-08T08:42:35;8.93;;;6.00;;
3095;SDS011;1558;42.700;23.360;2023-05-08T08:45:04;9.00;;;6.47;;
3095;SDS011;1558;42.700;23.360;2023-05-08T08:47:34;6.95;;;6.18;;
3095;SDS011;1558;42.700;23.360;2023-05-08T08:50:04;8.00;;;6.25;;
3095;SDS011;1558;42.700;23.360;2023-05-08T08:52:38;11.68;;;6.97;;
3095;SDS011;1558;42.700;23.360;2023-05-08T08:55:14;8.25;;;6.30;;
3095;SDS011;1558;42.700;23.360;2023-05-08T08:57:47;7.43;;;6.10;;
3095;SDS011;1558;42.700;23.360;2023-05-08T09:00:21;9.93;;;6.88;;
3095;SDS011;1558;42.700;23.360;2023-05-08T09:02:55;8.55;;;7.00;;
3095;SDS011;1558;42.700;23.360;2023-05-08T09:05:23;10.13;;;7.15;;
3095;SDS011;1558;42.700;23.360;2023-05-08T09:07:53;8.55;;;6.93;;
3095;SDS011;1558;42.700;23.360;2023-05-08T09:10:22;7.32;;;6.47;;
3095;SDS011;1558;42.700;23.360;2023-05-08T09:12:52;13.63;;;7.43;;
3095;SDS011;1558;42.700;23.360;2023-05-08T09:15:20;15.93;;;7.90;;
3095;SDS011;1558;42.700;23.360;2023-05-08T09:17:48;10.70;;;8.48;;
3095;SDS011;1558;42.700;23.360;2023-05-08T09:20:16;13.35;;;8.65;;
3095;SDS011;1558;42.700;23.360;2023-05-08T09:22:46;12.20;;;9.27;;
3095;SDS011;1558;42.700;23.360;2023-05-08T09:25:15;8.27;;;7.60;;
3095;SDS011;1558;42.700;23.360;2023-05-08T09:27:44;16.92;;;9.30;;
3095;SDS011;1558;42.700;23.360;2023-05-08T09:30:13;10.38;;;7.78;;
3095;SDS011;1558;42.700;23.360;2023-05-08T09:32:42;12.80;;;8.48;;
3095;SDS011;1558;42.700;23.360;2023-05-08T09:35:11;9.20;;;7.72;;
3095;SDS011;1558;42.700;23.360;2023-05-08T09:37:41;7.68;;;6.93;;
3095;SDS011;1558;42.700;23.360;2023-05-08T09:40:16;9.45;;;7.68;;
3095;SDS011;1558;42.700;23.360;2023-05-08T09:42:46;8.63;;;7.45;;
3095;SDS011;1558;42.700;23.360;2023-05-08T09:45:29;10.38;;;7.38;;
3095;SDS011;1558;42.700;23.360;2023-05-08T09:48:00;10.73;;;8.50;;
3095;SDS011;1558;42.700;23.360;2023-05-08T09:50:28;9.23;;;8.30;;
3095;SDS011;1558;42.700;23.360;2023-05-08T09:52:58;12.15;;;9.00;;
3095;SDS011;1558;42.700;23.360;2023-05-08T09:55:26;9.38;;;8.10;;
3095;SDS011;1558;42.700;23.360;2023-05-08T09:57:55;9.90;;;8.88;;
3095;SDS011;1558;42.700;23.360;2023-05-08T10:00:24;9.75;;;7.40;;
3095;SDS011;1558;42.700;23.360;2023-05-08T10:02:56;11.85;;;8.27;;
3095;SDS011;1558;42.700;23.360;2023-05-08T10:05:26;7.82;;;6.72;;
3095;SDS011;1558;42.700;23.360;2023-05-08T10:10:47;9.75;;;6.80;;
3095;SDS011;1558;42.700;23.360;2023-05-08T10:13:16;9.23;;;6.95;;
3095;SDS011;1558;42.700;23.360;2023-05-08T10:15:44;10.27;;;6.88;;
3095;SDS011;1558;42.700;23.360;2023-05-08T10:18:22;8.73;;;7.18;;
3095;SDS011;1558;42.700;23.360;2023-05-08T10:20:56;10.88;;;7.43;;
3095;SDS011;1558;42.700;23.360;2023-05-08T10:23:31;10.77;;;7.40;;
3095;SDS011;1558;42.700;23.360;2023-05-08T10:26:04;7.22;;;6.40;;
3095;SDS011;1558;42.700;23.360;2023-05-08T10:28:39;6.80;;;6.30;;
3095;SDS011;1558;42.700;23.360;2023-05-08T10:31:10;9.23;;;6.50;;
3095;SDS011;1558;42.700;23.360;2023-05-08T10:33:43;8.15;;;7.45;;
3095;SDS011;1558;42.700;23.360;2023-05-08T10:36:12;8.15;;;7.15;;
3095;SDS011;1558;42.700;23.360;2023-05-08T10:38:41;8.02;;;7.15;;
3095;SDS011;1558;42.700;23.360;2023-05-08T10:41:10;8.98;;;7.70;;
3095;SDS011;1558;42.700;23.360;2023-05-08T10:43:40;7.28;;;6.30;;
3095;SDS011;1558;42.700;23.360;2023-05-08T10:46:10;11.05;;;8.98;;
3095;SDS011;1558;42.700;23.360;2023-05-08T10:48:47;7.90;;;6.82;;
3095;SDS011;1558;42.700;23.360;2023-05-08T10:51:21;7.10;;;6.40;;
3095;SDS011;1558;42.700;23.360;2023-05-08T10:53:54;8.05;;;6.97;;
3095;SDS011;1558;42.700;23.360;2023-05-08T10:56:26;6.95;;;6.28;;
3095;SDS011;1558;42.700;23.360;2023-05-08T10:58:55;6.53;;;6.03;;
3095;SDS011;1558;42.700;23.360;2023-05-08T11:01:23;7.10;;;6.40;;
3095;SDS011;1558;42.700;23.360;2023-05-08T11:03:54;7.70;;;6.40;;
3095;SDS011;1558;42.700;23.360;2023-05-08T11:09:18;6.38;;;5.80;;
3095;SDS011;1558;42.700;23.360;2023-05-08T11:14:52;6.30;;;5.65;;
3095;SDS011;1558;42.700;23.360;2023-05-08T11:17:23;6.40;;;5.80;;
3095;SDS011;1558;42.700;23.360;2023-05-08T11:19:56;6.72;;;6.20;;
3095;SDS011;1558;42.700;23.360;2023-05-08T11:22:26;7.28;;;5.97;;
3095;SDS011;1558;42.700;23.360;2023-05-08T11:24:57;6.40;;;5.80;;
3095;SDS011;1558;42.700;23.360;2023-05-08T11:27:36;5.18;;;4.75;;
3095;SDS011;1558;42.700;23.360;2023-05-08T11:30:19;7.00;;;5.30;;
3095;SDS011;1558;42.700;23.360;2023-05-08T11:32:55;5.10;;;4.80;;
3095;SDS011;1558;42.700;23.360;2023-05-08T11:35:42;5.60;;;5.10;;
3095;SDS011;1558;42.700;23.360;2023-05-08T11:38:14;5.65;;;5.10;;
3095;SDS011;1558;42.700;23.360;2023-05-08T11:40:44;6.38;;;5.88;;
3095;SDS011;1558;42.700;23.360;2023-05-08T11:43:23;5.78;;;5.30;;
3095;SDS011;1558;42.700;23.360;2023-05-08T11:45:52;5.93;;;5.30;;
3095;SDS011;1558;42.700;23.360;2023-05-08T11:48:21;5.70;;;5.30;;
3095;SDS011;1558;42.700;23.360;2023-05-08T11:50:50;5.75;;;5.30;;
3095;SDS011;1558;42.700;23.360;2023-05-08T11:53:19;5.72;;;5.22;;
3095;SDS011;1558;42.700;23.360;2023-05-08T11:55:47;6.40;;;5.90;;
3095;SDS011;1558;42.700;23.360;2023-05-08T11:58:17;6.65;;;6.13;;
3095;SDS011;1558;42.700;23.360;2023-05-08T12:00:45;5.90;;;5.30;;
3095;SDS011;1558;42.700;23.360;2023-05-08T12:03:15;5.70;;;5.18;;
3095;SDS011;1558;42.700;23.360;2023-05-08T12:05:45;5.57;;;5.18;;
3095;SDS011;1558;42.700;23.360;2023-05-08T12:08:15;5.82;;;5.10;;
3095;SDS011;1558;42.700;23.360;2023-05-08T12:10:48;6.30;;;5.70;;
3095;SDS011;1558;42.700;23.360;2023-05-08T12:13:19;5.53;;;5.10;;
3095;SDS011;1558;42.700;23.360;2023-05-08T12:15:49;6.30;;;5.75;;
3095;SDS011;1558;42.700;23.360;2023-05-08T12:18:19;5.30;;;4.95;;
3095;SDS011;1558;42.700;23.360;2023-05-08T12:20:51;5.45;;;4.93;;
3095;SDS011;1558;42.700;23.360;2023-05-08T12:23:21;5.88;;;5.20;;
3095;SDS011;1558;42.700;23.360;2023-05-08T12:25:50;5.35;;;4.95;;
3095;SDS011;1558;42.700;23.360;2023-05-08T12:28:20;6.20;;;5.70;;
3095;SDS011;1558;42.700;23.360;2023-05-08T12:30:49;7.00;;;5.43;;
3095;SDS011;1558;42.700;23.360;2023-05-08T12:33:17;5.70;;;5.20;;
3095;SDS011;1558;42.700;23.360;2023-05-08T12:35:46;8.60;;;5.45;;
3095;SDS011;1558;42.700;23.360;2023-05-08T12:38:14;4.72;;;4.40;;
3095;SDS011;1558;42.700;23.360;2023-05-08T12:40:44;5.57;;;5.07;;
3095;SDS011;1558;42.700;23.360;2023-05-08T12:43:14;7.55;;;4.82;;
3095;SDS011;1558;42.700;23.360;2023-05-08T12:45:42;5.85;;;4.65;;
3095;SDS011;1558;42.700;23.360;2023-05-08T12:48:11;5.00;;;4.60;;
3095;SDS011;1558;42.700;23.360;2023-05-08T12:50:41;5.82;;;4.85;;
3095;SDS011;1558;42.700;23.360;2023-05-08T12:53:11;5.30;;;4.43;;
3095;SDS011;1558;42.700;23.360;2023-05-08T12:55:49;5.40;;;4.60;;
3095;SDS011;1558;42.700;23.360;2023-05-08T12:58:22;5.70;;;4.80;;
3095;SDS011;1558;42.700;23.360;2023-05-08T13:00:51;7.55;;;5.30;;
3095;SDS011;1558;42.700;23.360;2023-05-08T13:03:21;15.60;;;6.20;;
3095;SDS011;1558;42.700;23.360;2023-05-08T13:05:51;8.75;;;6.38;;
3095;SDS011;1558;42.700;23.360;2023-05-08T13:08:20;9.73;;;7.55;;
3095;SDS011;1558;42.700;23.360;2023-05-08T13:10:58;8.40;;;5.82;;
3095;SDS011;1558;42.700;23.360;2023-05-08T13:13:28;10.88;;;8.18;;
3095;SDS011;1558;42.700;23.360;2023-05-08T13:16:00;10.43;;;6.40;;
3095;SDS011;1558;42.700;23.360;2023-05-08T13:18:29;5.97;;;5.53;;
3095;SDS011;1558;42.700;23.360;2023-05-08T13:20:58;7.22;;;5.85;;
3095;SDS011;1558;42.700;23.360;2023-05-08T13:23:27;8.90;;;7.22;;
3095;SDS011;1558;42.700;23.360;2023-05-08T13:25:56;6.25;;;5.70;;
3095;SDS011;1558;42.700;23.360;2023-05-08T13:28:25;8.80;;;5.45;;
3095;SDS011;1558;42.700;23.360;2023-05-08T13:30:53;7.22;;;5.85;;
3095;SDS011;1558;42.700;23.360;2023-05-08T13:33:21;5.57;;;5.07;;
3095;SDS011;1558;42.700;23.360;2023-05-08T13:35:49;6.40;;;5.90;;
3095;SDS011;1558;42.700;23.360;2023-05-08T13:38:18;8.90;;;8.02;;
3095;SDS011;1558;42.700;23.360;2023-05-08T13:40:46;8.50;;;6.93;;
3095;SDS011;1558;42.700;23.360;2023-05-08T13:43:15;6.45;;;5.85;;
3095;SDS011;1558;42.700;23.360;2023-05-08T13:45:43;6.72;;;6.10;;
3095;SDS011;1558;42.700;23.360;2023-05-08T13:48:11;6.57;;;5.97;;
3095;SDS011;1558;42.700;23.360;2023-05-08T13:50:39;7.10;;;6.50;;
3095;SDS011;1558;42.700;23.360;2023-05-08T13:53:07;8.27;;;6.00;;
3095;SDS011;1558;42.700;23.360;2023-05-08T13:55:35;7.22;;;6.07;;
3095;SDS011;1558;42.700;23.360;2023-05-08T13:58:03;7.05;;;6.00;;
3095;SDS011;1558;42.700;23.360;2023-05-08T14:00:33;6.32;;;5.78;;
3095;SDS011;1558;42.700;23.360;2023-05-08T14:03:01;7.47;;;6.78;;
3095;SDS011;1558;42.700;23.360;2023-05-08T14:05:29;9.10;;;6.32;;
3095;SDS011;1558;42.700;23.360;2023-05-08T14:07:58;7.60;;;6.80;;
3095;SDS011;1558;42.700;23.360;2023-05-08T14:10:26;8.98;;;8.25;;
3095;SDS011;1558;42.700;23.360;2023-05-08T14:12:54;7.13;;;6.53;;
3095;SDS011;1558;42.700;23.360;2023-05-08T14:15:22;7.72;;;6.53;;
3095;SDS011;1558;42.700;23.360;2023-05-08T14:18:02;11.40;;;6.90;;
3095;SDS011;1558;42.700;23.360;2023-05-08T14:20:31;7.38;;;5.97;;
3095;SDS011;1558;42.700;23.360;2023-05-08T14:22:59;6.97;;;6.38;;
3095;SDS011;1558;42.700;23.360;2023-05-08T14:25:27;11.18;;;8.25;;
3095;SDS011;1558;42.700;23.360;2023-05-08T14:27:55;11.40;;;7.10;;
3095;SDS011;1558;42.700;23.360;2023-05-08T14:30:23;8.60;;;7.13;;
3095;SDS011;1558;42.700;23.360;2023-05-08T14:32:51;6.72;;;6.13;;
3095;SDS011;1558;42.700;23.360;2023-05-08T14:35:21;4.73;;;4.40;;
3095;SDS011;1558;42.700;23.360;2023-05-08T14:37:49;5.90;;;5.40;;
3095;SDS011;1558;42.700;23.360;2023-05-08T14:40:17;5.43;;;5.03;;
3095;SDS011;1558;42.700;23.360;2023-05-08T14:42:47;5.27;;;4.87;;
3095;SDS011;1558;42.700;23.360;2023-05-08T14:45:15;5.20;;;4.70;;
3095;SDS011;1558;42.700;23.360;2023-05-08T14:47:43;6.70;;;6.10;;
3095;SDS011;1558;42.700;23.360;2023-05-08T14:50:11;5.00;;;4.53;;
3095;SDS011;1558;42.700;23.360;2023-05-08T14:52:40;4.83;;;4.20;;
3095;SDS011;1558;42.700;23.360;2023-05-08T14:55:09;4.97;;;4.40;;
3095;SDS011;1558;42.700;23.360;2023-05-08T14:57:37;5.97;;;4.20;;
3095;SDS011;1558;42.700;23.360;2023-05-08T15:00:06;6.23;;;4.90;;
3095;SDS011;1558;42.700;23.360;2023-05-08T15:02:36;4.53;;;4.10;;
3095;SDS011;1558;42.700;23.360;2023-05-08T15:05:05;5.23;;;4.17;;
3095;SDS011;1558;42.700;23.360;2023-05-08T15:07:46;15.20;;;9.90;;
3095;SDS011;1558;42.700;23.360;2023-05-08T15:10:15;4.93;;;4.43;;
3095;SDS011;1558;42.700;23.360;2023-05-08T15:12:43;10.47;;;5.17;;
3095;SDS011;1558;42.700;23.360;2023-05-08T15:15:11;6.80;;;4.67;;
3095;SDS011;1558;42.700;23.360;2023-05-08T15:17:40;6.57;;;4.37;;
3095;SDS011;1558;42.700;23.360;2023-05-08T15:20:08;6.43;;;5.53;;
3095;SDS011;1558;42.700;23.360;2023-05-08T15:22:36;22.53;;;9.47;;
3095;SDS011;1558;42.700;23.360;2023-05-08T15:25:07;8.97;;;5.10;;